Time;durP1;ratioP1;P1;durP2;ratioP2;P2;SDS_P1;SDS_P2;PMS_P1;PMS_P2;Temp;Humidity;BMP_temperature;BMP_pressure;BME280_temperature;BME280_humidity;BME280_pressure;Samples;Min_cycle;Max_cycle;Signal;HPM_P1;HPM_P2
2023/05/05 00:01:53;;;;;;;2.83;1.20;;;12.20;76.20;;;;;;5004351;28;20224;-64
2023/05/05 00:04:21;;;;;;;4.93;1.10;;;12.20;76.70;;;;;;5012552;28;20661;-63
2023/05/05 00:06:50;;;;;;;1.30;1.20;;;12.20;77.10;;;;;;5009667;28;20222;-63
2023/05/05 00:09:17;;;;;;;1.20;1.07;;;12.20;77.50;;;;;;5010282;28;20210;-63
2023/05/05 00:11:44;;;;;;;2.50;1.40;;;12.10;77.60;;;;;;4996705;28;20231;-64
2023/05/05 00:14:11;;;;;;;3.17;1.40;;;12.10;78.00;;;;;;5007512;28;20272;-65
2023/05/05 00:16:38;;;;;;;1.40;1.30;;;12.10;78.30;;;;;;5007249;28;20278;-65
2023/05/05 00:19:06;;;;;;;1.23;1.13;;;12.80;79.60;;;;;;4992341;28;20230;-65
2023/05/05 00:21:33;;;;;;;1.10;1.10;;;12.10;78.50;;;;;;5006559;28;20187;-64
2023/05/05 00:24:01;;;;;;;4.30;1.50;;;12.10;78.50;;;;;;5006401;28;20290;-65
2023/05/05 00:26:29;;;;;;;1.57;1.23;;;12.10;79.00;;;;;;5005503;28;20369;-64
2023/05/05 00:28:57;;;;;;;1.67;1.50;;;12.20;79.00;;;;;;5009728;28;20282;-65
2023/05/05 00:31:24;;;;;;;1.57;1.47;;;12.10;79.20;;;;;;5009743;28;20218;-64
2023/05/05 00:33:51;;;;;;;1.40;1.30;;;12.10;79.40;;;;;;5005977;28;20242;-64
2023/05/05 00:36:18;;;;;;;1.90;1.50;;;12.00;79.40;;;;;;5009627;28;20795;-64
2023/05/05 00:38:45;;;;;;;3.10;1.67;;;12.10;79.70;;;;;;5008720;28;20325;-64
2023/05/05 00:41:14;;;;;;;1.30;1.20;;;12.00;79.70;;;;;;5015208;28;20277;-64
2023/05/05 00:43:41;;;;;;;1.33;1.27;;;12.00;79.70;;;;;;5009480;28;20194;-64
2023/05/05 00:46:17;;;;;;;1.23;1.13;;;12.00;79.70;;;;;;5008331;28;20306;-65
2023/05/05 00:48:45;;;;;;;3.23;1.40;;;12.00;79.80;;;;;;5008863;28;20191;-65
2023/05/05 00:51:13;;;;;;;1.00;1.00;;;12.00;80.60;;;;;;5006843;28;20214;-64
2023/05/05 00:53:41;;;;;;;1.13;1.03;;;12.00;79.80;;;;;;5010128;28;20213;-64
2023/05/05 00:56:09;;;;;;;3.43;1.40;;;12.10;79.80;;;;;;5011517;28;20563;-64
2023/05/05 00:58:38;;;;;;;1.50;1.20;;;12.10;79.60;;;;;;5010650;28;20590;-65
2023/05/05 01:01:05;;;;;;;1.30;0.83;;;12.10;79.50;;;;;;4992246;28;20954;-65
2023/05/05 01:03:32;;;;;;;2.87;1.20;;;12.10;79.40;;;;;;4995015;28;20234;-65
2023/05/05 01:06:09;;;;;;;3.67;1.10;;;12.00;79.10;;;;;;5013041;28;20205;-65
2023/05/05 01:08:49;;;;;;;2.03;1.13;;;12.00;78.90;;;;;;5012717;28;20195;-65
2023/05/05 01:11:23;;;;;;;1.23;1.00;;;12.00;78.70;;;;;;5013403;28;20195;-65
2023/05/05 01:14:01;;;;;;;1.60;1.40;;;12.00;78.60;;;;;;5011965;28;20208;-65
2023/05/05 01:16:32;;;;;;;4.27;1.57;;;12.00;78.30;;;;;;5014902;28;20247;-65
2023/05/05 01:19:11;;;;;;;3.47;1.20;;;11.90;78.00;;;;;;5010765;28;20594;-65
2023/05/05 01:21:42;;;;;;;1.30;1.20;;;11.80;78.00;;;;;;5016155;28;20200;-65
2023/05/05 01:24:45;;;;;;;1.70;1.13;;;11.80;78.00;;;;;;5011008;28;20221;-66
2023/05/05 01:27:39;;;;;;;2.83;1.00;;;11.80;77.90;;;;;;4938022;28;20211;-65
2023/05/05 01:30:34;;;;;;;2.33;1.10;;;11.80;77.80;;;;;;4935002;28;20454;-65
2023/05/05 01:33:06;;;;;;;1.93;1.30;;;11.70;77.70;;;;;;4918828;29;20214;-65
2023/05/05 01:35:41;;;;;;;1.00;0.90;;;11.70;78.40;;;;;;4936685;29;20682;-65
2023/05/05 01:38:13;;;;;;;1.43;0.93;;;11.70;77.70;;;;;;4939596;28;20955;-65
2023/05/05 01:40:45;;;;;;;1.30;1.20;;;11.70;77.70;;;;;;4938359;28;20246;-65
2023/05/05 01:43:15;;;;;;;1.43;0.80;;;11.70;92.70;;;;;;4921840;29;20197;-65
2023/05/05 01:45:43;;;;;;;1.97;1.00;;;11.60;77.30;;;;;;4936799;29;20257;-65
2023/05/05 01:48:15;;;;;;;1.07;1.00;;;11.60;77.20;;;;;;4936459;28;20220;-65
2023/05/05 01:50:45;;;;;;;4.17;1.30;;;11.60;77.30;;;;;;4924174;28;20564;-65
2023/05/05 01:53:13;;;;;;;1.60;1.00;;;11.50;77.30;;;;;;4938288;28;20288;-65
2023/05/05 01:55:41;;;;;;;2.17;1.10;;;11.60;77.40;;;;;;4941200;28;20742;-65
2023/05/05 01:58:10;;;;;;;1.23;0.93;;;11.60;77.50;;;;;;4935166;28;20202;-64
2023/05/05 02:00:38;;;;;;;1.00;0.90;;;11.60;77.70;;;;;;4934988;28;20215;-65
2023/05/05 02:03:08;;;;;;;3.60;1.20;;;11.60;77.90;;;;;;5006425;28;20235;-65
2023/05/05 02:05:39;;;;;;;1.00;1.00;;;11.60;78.00;;;;;;5007630;28;20219;-65
2023/05/05 02:08:08;;;;;;;2.80;0.90;;;11.60;78.20;;;;;;5008623;28;20308;-65
2023/05/05 02:10:39;;;;;;;0.80;0.80;;;11.60;78.20;;;;;;5011474;28;20221;-64
2023/05/05 02:13:08;;;;;;;2.67;1.10;;;11.60;78.30;;;;;;4994500;28;20302;-65
2023/05/05 02:15:36;;;;;;;2.03;1.10;;;11.60;78.50;;;;;;5012279;28;20198;-65
2023/05/05 02:18:06;;;;;;;2.23;1.20;;;11.50;78.60;;;;;;4998194;28;20198;-65
2023/05/05 02:20:34;;;;;;;4.73;1.33;;;11.50;78.90;;;;;;5010973;28;20681;-65
2023/05/05 02:23:04;;;;;;;3.33;0.93;;;11.40;79.00;;;;;;5013556;28;20353;-65
2023/05/05 02:25:38;;;;;;;1.10;1.00;;;11.30;79.00;;;;;;5011692;28;20338;-65
2023/05/05 02:28:11;;;;;;;1.60;1.30;;;11.30;78.60;;;;;;5011036;28;20257;-65
2023/05/05 02:30:40;;;;;;;1.30;1.20;;;11.30;78.20;;;;;;4990470;28;20500;-66
2023/05/05 02:33:11;;;;;;;2.03;1.10;;;11.30;77.80;;;;;;5006233;28;20413;-65
2023/05/05 02:35:40;;;;;;;1.20;1.10;;;11.30;77.20;;;;;;5009770;28;20274;-65
2023/05/05 02:38:17;;;;;;;1.90;0.93;;;11.30;76.60;;;;;;4996297;28;20221;-65
2023/05/05 02:40:49;;;;;;;2.27;0.90;;;11.30;76.20;;;;;;4995364;28;20197;-65
2023/05/05 02:43:21;;;;;;;1.40;1.00;;;11.20;75.80;;;;;;4994835;28;20559;-65
2023/05/05 02:45:49;;;;;;;1.00;1.00;;;11.20;75.80;;;;;;5008057;28;20213;-65
2023/05/05 02:48:17;;;;;;;3.60;1.20;;;11.20;74.80;;;;;;5009905;28;20218;-65
2023/05/05 02:50:44;;;;;;;3.10;1.10;;;11.10;73.80;;;;;;5008970;28;20287;-65
2023/05/05 02:53:24;;;;;;;2.50;1.30;;;11.10;73.60;;;;;;5009311;28;20281;-65
2023/05/05 02:55:54;;;;;;;2.43;1.23;;;11.00;72.40;;;;;;5013699;28;20643;-65
2023/05/05 02:58:31;;;;;;;3.33;1.47;;;10.90;72.30;;;;;;4997392;28;20202;-65
2023/05/05 03:01:11;;;;;;;1.70;1.37;;;10.90;72.00;;;;;;4998837;28;20204;-65
2023/05/05 03:03:44;;;;;;;1.10;1.00;;;10.90;72.00;;;;;;5008273;28;20243;-65
2023/05/05 03:06:17;;;;;;;2.60;0.87;;;10.80;72.10;;;;;;4995541;28;20245;-66
2023/05/05 03:08:53;;;;;;;4.20;1.27;;;10.90;72.00;;;;;;5005935;28;20679;-65
2023/05/05 03:11:27;;;;;;;2.67;1.10;;;10.90;71.40;;;;;;4988884;28;20263;-65
2023/05/05 03:14:02;;;;;;;1.20;1.10;;;10.80;70.10;;;;;;4989498;28;20206;-65
2023/05/05 03:16:31;;;;;;;1.77;1.00;;;10.70;70.00;;;;;;4988692;28;22027;-65
2023/05/05 03:18:59;;;;;;;1.70;0.90;;;10.80;69.90;;;;;;4995271;28;20654;-66
2023/05/05 03:21:28;;;;;;;0.80;0.80;;;10.80;85.40;;;;;;4994174;28;20212;-66
2023/05/05 03:23:58;;;;;;;3.50;1.03;;;10.80;69.70;;;;;;4994377;28;20534;-65
2023/05/05 03:26:25;;;;;;;1.30;1.10;;;10.80;69.30;;;;;;4994862;28;20203;-64
2023/05/05 03:28:52;;;;;;;1.60;0.90;;;10.80;69.20;;;;;;5001293;28;20209;-64
2023/05/05 03:31:28;;;;;;;1.10;0.80;;;10.80;69.30;;;;;;5008029;28;20370;-63
2023/05/05 03:33:58;;;;;;;1.10;0.93;;;10.80;69.40;;;;;;4991234;28;20314;-64
2023/05/05 03:36:29;;;;;;;7.47;1.47;;;10.90;69.20;;;;;;4991430;28;20651;-64
2023/05/05 03:38:59;;;;;;;1.23;0.70;;;10.90;68.90;;;;;;4996078;28;20203;-63
2023/05/05 03:41:30;;;;;;;2.07;0.60;;;10.90;69.10;;;;;;4995510;28;20209;-64
2023/05/05 03:43:57;;;;;;;4.50;1.10;;;10.90;69.00;;;;;;4993699;28;20212;-64
2023/05/05 03:46:25;;;;;;;1.50;1.00;;;10.70;90.60;;;;;;4993183;28;20208;-64
2023/05/05 03:48:55;;;;;;;2.57;0.97;;;10.90;68.00;;;;;;4995080;28;20211;-65
2023/05/05 03:51:24;;;;;;;1.03;0.87;;;10.80;67.60;;;;;;5006329;28;20205;-65
2023/05/05 03:53:51;;;;;;;6.70;0.90;;;10.80;67.30;;;;;;4988620;28;20769;-65
2023/05/05 03:56:20;;;;;;;1.30;0.80;;;10.80;66.40;;;;;;4995563;28;20197;-64
2023/05/05 03:58:47;;;;;;;0.70;0.70;;;10.80;66.20;;;;;;5005514;28;20622;-64
2023/05/05 04:01:14;;;;;;;1.27;1.00;;;10.10;65.20;;;;;;5007930;28;20199;-64
2023/05/05 04:03:41;;;;;;;4.43;0.93;;;10.70;65.40;;;;;;5007815;28;20310;-64
2023/05/05 04:06:09;;;;;;;0.80;0.80;;;10.70;64.80;;;;;;5003432;28;20566;-64
2023/05/05 04:08:36;;;;;;;2.33;0.73;;;10.80;65.20;;;;;;4996234;28;20352;-64
2023/05/05 04:11:03;;;;;;;0.93;0.90;;;10.70;83.60;;;;;;4995341;28;22183;-64
2023/05/05 04:13:33;;;;;;;2.13;1.10;;;10.80;64.40;;;;;;5008043;28;20210;-65
2023/05/05 04:16:00;;;;;;;1.20;0.87;;;10.60;88.40;;;;;;4988444;28;20194;-65
2023/05/05 04:18:28;;;;;;;1.30;1.00;;;10.80;63.40;;;;;;5006691;28;20211;-65
2023/05/05 04:20:55;;;;;;;2.70;0.73;;;10.80;63.50;;;;;;4992472;28;20230;-65
2023/05/05 04:23:23;;;;;;;1.43;0.90;;;10.80;62.80;;;;;;5009644;28;20205;-64
2023/05/05 04:25:50;;;;;;;1.23;1.00;;;10.80;62.40;;;;;;4998835;28;20211;-64
2023/05/05 04:28:19;;;;;;;1.00;0.90;;;10.80;62.70;;;;;;4999617;28;20788;-65
2023/05/05 04:30:48;;;;;;;3.90;1.17;;;10.80;61.80;;;;;;4993847;28;20204;-65
2023/05/05 04:33:15;;;;;;;1.10;1.00;;;10.90;61.00;;;;;;4998549;28;20211;-65
2023/05/05 04:35:43;;;;;;;2.27;0.90;;;10.90;60.80;;;;;;5005187;28;20566;-64
2023/05/05 04:38:10;;;;;;;1.00;0.90;;;10.90;60.50;;;;;;4997476;28;20286;-65
2023/05/05 04:40:39;;;;;;;2.10;1.10;;;10.90;60.30;;;;;;4997302;28;20203;-65
2023/05/05 04:43:07;;;;;;;2.37;1.10;;;10.90;59.80;;;;;;4997357;28;20212;-65
2023/05/05 04:45:35;;;;;;;1.37;1.10;;;11.00;59.60;;;;;;5009014;28;20226;-65
2023/05/05 04:48:04;;;;;;;2.60;1.00;;;11.00;59.80;;;;;;4996592;28;20213;-64
2023/05/05 04:50:32;;;;;;;1.10;1.00;;;11.00;59.00;;;;;;4996134;28;20210;-65
2023/05/05 04:52:59;;;;;;;0.90;0.90;;;11.10;58.90;;;;;;4996075;28;20204;-65
2023/05/05 04:55:26;;;;;;;1.20;1.00;;;11.10;59.10;;;;;;4995759;28;20210;-66
2023/05/05 04:57:54;;;;;;;1.10;0.90;;;11.10;57.80;;;;;;5010494;28;20196;-65
2023/05/05 05:00:22;;;;;;;1.80;0.97;;;11.20;57.60;;;;;;5004472;28;20202;-64
2023/05/05 05:02:49;;;;;;;0.80;0.80;;;11.10;57.10;;;;;;4989777;28;20229;-64
2023/05/05 05:05:18;;;;;;;1.03;0.80;;;11.10;57.00;;;;;;4997455;28;20313;-64
2023/05/05 05:07:45;;;;;;;1.07;0.90;;;11.10;57.10;;;;;;5008844;28;20607;-65
2023/05/05 05:10:12;;;;;;;1.73;0.90;;;11.10;57.30;;;;;;5010446;28;20208;-64
2023/05/05 05:12:39;;;;;;;1.33;0.80;;;11.10;57.00;;;;;;5010962;28;20621;-64
2023/05/05 05:15:08;;;;;;;1.00;0.90;;;11.10;56.40;;;;;;5010098;28;20556;-65
2023/05/05 05:17:35;;;;;;;0.97;0.73;;;11.10;56.80;;;;;;5009057;28;20293;-64
2023/05/05 05:20:03;;;;;;;1.77;0.90;;;11.10;57.10;;;;;;5008842;28;20251;-65
2023/05/05 05:22:33;;;;;;;4.73;0.97;;;11.10;57.00;;;;;;4996511;28;20621;-65
2023/05/05 05:25:01;;;;;;;1.30;0.80;;;11.10;56.90;;;;;;4991454;28;20214;-65
2023/05/05 05:27:29;;;;;;;3.27;1.20;;;11.10;56.70;;;;;;5009823;28;20195;-65
2023/05/05 05:29:56;;;;;;;0.97;0.97;;;11.10;55.60;;;;;;5009337;28;20210;-65
2023/05/05 05:32:25;;;;;;;0.90;0.90;;;11.20;53.80;;;;;;4996492;28;20214;-65
2023/05/05 05:34:53;;;;;;;0.90;0.90;;;11.10;53.50;;;;;;4997030;28;20202;-65
2023/05/05 05:37:20;;;;;;;1.23;1.10;;;11.10;53.30;;;;;;5008521;28;20190;-65
2023/05/05 05:39:53;;;;;;;0.93;0.73;;;11.10;53.10;;;;;;5007992;28;20295;-65
2023/05/05 05:42:22;;;;;;;1.90;1.03;;;11.10;53.40;;;;;;4997786;28;20199;-65
2023/05/05 05:44:49;;;;;;;2.07;0.93;;;11.20;54.10;;;;;;4991979;28;20198;-65
2023/05/05 05:47:16;;;;;;;2.50;1.00;;;11.20;53.70;;;;;;4996267;28;20609;-65
2023/05/05 05:49:44;;;;;;;0.70;0.70;;;11.20;52.90;;;;;;5011466;28;20737;-66
2023/05/05 05:52:11;;;;;;;1.07;0.97;;;11.20;52.40;;;;;;5010994;28;20344;-64
2023/05/05 05:54:39;;;;;;;3.53;1.37;;;11.20;51.40;;;;;;4998125;28;20199;-65
2023/05/05 05:57:08;;;;;;;2.93;1.30;;;11.20;50.90;;;;;;4989252;28;20223;-65
2023/05/05 05:59:35;;;;;;;4.60;1.27;;;11.20;50.70;;;;;;5010376;28;20380;-64
2023/05/05 06:02:03;;;;;;;0.80;0.80;;;11.20;51.10;;;;;;4995167;28;20315;-65
2023/05/05 06:04:31;;;;;;;1.03;0.93;;;11.20;51.00;;;;;;5008269;28;20241;-64
2023/05/05 06:06:58;;;;;;;1.57;0.80;;;11.20;51.90;;;;;;4995202;28;20222;-64
2023/05/05 06:09:26;;;;;;;0.60;0.60;;;11.20;51.20;;;;;;4996010;28;20209;-64
2023/05/05 06:11:55;;;;;;;5.07;1.20;;;11.20;50.80;;;;;;5009269;28;20651;-64
2023/05/05 06:14:23;;;;;;;0.90;0.80;;;11.20;50.80;;;;;;5010605;28;20197;-64
2023/05/05 06:16:51;;;;;;;2.37;0.80;;;11.20;51.00;;;;;;4997630;28;20227;-65
2023/05/05 06:19:21;;;;;;;0.80;0.80;;;11.20;51.30;;;;;;4993354;28;20292;-64
2023/05/05 06:21:49;;;;;;;1.93;0.90;;;11.20;51.70;;;;;;5009298;28;20765;-64
2023/05/05 06:24:16;;;;;;;1.50;1.20;;;11.30;52.30;;;;;;4992438;28;20583;-64
2023/05/05 06:26:43;;;;;;;3.17;0.97;;;11.40;52.70;;;;;;4996287;28;20306;-64
2023/05/05 06:29:11;;;;;;;0.80;0.80;;;11.40;52.90;;;;;;4989825;28;20196;-64
2023/05/05 06:31:39;;;;;;;0.50;0.50;;;11.40;52.80;;;;;;5008812;28;20210;-64
2023/05/05 06:34:06;;;;;;;2.10;0.90;;;11.50;53.20;;;;;;5006769;28;20996;-65
2023/05/05 06:36:33;;;;;;;0.90;0.80;;;11.60;53.70;;;;;;4994898;28;20222;-65
2023/05/05 06:39:00;;;;;;;0.90;0.90;;;11.70;54.10;;;;;;5008238;28;20198;-65
2023/05/05 06:41:27;;;;;;;4.77;0.90;;;11.70;54.40;;;;;;5006842;28;20771;-64
2023/05/05 06:43:54;;;;;;;1.13;1.00;;;11.80;54.90;;;;;;5009288;28;20261;-64
2023/05/05 06:46:22;;;;;;;2.30;1.07;;;11.80;55.00;;;;;;5006264;28;20243;-65
2023/05/05 06:48:50;;;;;;;2.93;1.13;;;11.80;55.00;;;;;;4996972;28;20384;-65
2023/05/05 06:51:17;;;;;;;0.90;0.90;;;11.80;55.00;;;;;;5004671;28;20276;-65
2023/05/05 06:53:44;;;;;;;1.13;0.90;;;11.80;55.50;;;;;;5007254;28;20596;-65
2023/05/05 06:56:11;;;;;;;2.63;1.00;;;11.90;56.70;;;;;;5009151;28;20194;-65
2023/05/05 06:58:39;;;;;;;1.40;1.00;;;11.90;56.80;;;;;;4992547;28;20729;-65
2023/05/05 07:01:06;;;;;;;1.40;1.10;;;11.90;56.40;;;;;;5005290;28;20356;-65
2023/05/05 07:03:33;;;;;;;1.10;1.00;;;11.90;56.40;;;;;;5003941;28;20227;-64
2023/05/05 07:06:02;;;;;;;1.23;0.93;;;12.00;56.70;;;;;;5005721;28;20534;-65
2023/05/05 07:08:29;;;;;;;3.60;1.27;;;12.10;57.20;;;;;;5006407;28;20245;-64
2023/05/05 07:10:56;;;;;;;1.53;1.30;;;12.10;57.50;;;;;;5007236;28;20555;-65
2023/05/05 07:13:23;;;;;;;4.17;1.30;;;12.20;57.70;;;;;;5007200;28;20305;-65
2023/05/05 07:15:50;;;;;;;2.40;1.10;;;12.30;58.30;;;;;;5004458;28;20203;-65
2023/05/05 07:18:19;;;;;;;0.97;0.97;;;12.30;58.00;;;;;;5006372;28;20634;-65
2023/05/05 07:20:46;;;;;;;1.40;1.13;;;12.40;58.00;;;;;;5008330;28;20631;-66
2023/05/05 07:23:14;;;;;;;1.90;0.90;;;12.40;58.30;;;;;;5008341;28;20218;-64
2023/05/05 07:25:42;;;;;;;1.07;0.97;;;12.50;58.60;;;;;;5006864;28;20301;-65
2023/05/05 07:28:10;;;;;;;2.63;1.13;;;12.40;58.90;;;;;;4987273;28;20322;-66
2023/05/05 07:30:37;;;;;;;3.70;1.13;;;12.50;58.90;;;;;;4993611;28;20206;-66
2023/05/05 07:33:04;;;;;;;6.87;1.20;;;12.60;59.30;;;;;;5005588;28;20217;-66
2023/05/05 07:35:31;;;;;;;1.40;1.10;;;12.70;59.50;;;;;;5007921;28;20248;-66
2023/05/05 07:37:59;;;;;;;1.77;1.03;;;12.70;59.50;;;;;;4994902;28;20269;-66
2023/05/05 07:40:27;;;;;;;1.70;1.10;;;12.80;59.40;;;;;;5009402;28;20210;-66
2023/05/05 07:42:54;;;;;;;4.27;1.53;;;12.80;59.70;;;;;;5006977;28;20292;-66
2023/05/05 07:45:22;;;;;;;3.10;1.10;;;12.80;59.80;;;;;;5006639;28;20289;-66
2023/05/05 07:47:49;;;;;;;1.00;0.90;;;12.80;59.80;;;;;;5003242;28;20246;-65
2023/05/05 07:50:16;;;;;;;2.47;1.00;;;12.90;60.10;;;;;;5007552;28;20530;-65
2023/05/05 07:52:43;;;;;;;1.93;0.90;;;12.90;60.50;;;;;;5007133;28;20183;-65
2023/05/05 07:55:10;;;;;;;1.30;1.10;;;13.00;60.80;;;;;;4991282;28;20203;-66
2023/05/05 07:57:39;;;;;;;4.40;0.90;;;13.10;61.70;;;;;;5004574;28;20199;-64
2023/05/05 08:00:07;;;;;;;1.10;1.00;;;13.10;61.70;;;;;;5008274;28;20613;-64
2023/05/05 08:02:41;;;;;;;2.47;1.30;;;13.20;62.40;;;;;;5004857;28;20204;-64
2023/05/05 08:05:08;;;;;;;1.10;1.00;;;13.20;62.60;;;;;;5007085;28;20191;-64
2023/05/05 08:07:39;;;;;;;2.20;0.93;;;13.20;62.50;;;;;;5005689;28;20212;-64
2023/05/05 08:10:08;;;;;;;1.37;1.00;;;13.30;62.60;;;;;;5007748;28;20183;-64
2023/05/05 08:12:36;;;;;;;1.07;0.93;;;13.30;62.40;;;;;;5006992;28;20198;-64
2023/05/05 08:15:05;;;;;;;1.93;1.00;;;13.30;62.20;;;;;;5008175;28;20405;-64
2023/05/05 08:17:44;;;;;;;1.40;1.10;;;13.30;62.00;;;;;;5005104;28;21080;-64
2023/05/05 08:20:12;;;;;;;1.67;1.40;;;13.40;62.10;;;;;;5004625;28;20320;-65
2023/05/05 08:22:40;;;;;;;2.53;1.20;;;13.40;62.50;;;;;;5006668;28;20198;-64
2023/05/05 08:25:09;;;;;;;3.10;1.30;;;13.40;62.80;;;;;;5007425;28;20214;-64
2023/05/05 08:27:38;;;;;;;4.43;1.20;;;13.40;63.20;;;;;;5007494;28;20207;-64
2023/05/05 08:30:08;;;;;;;2.83;1.30;;;13.40;63.20;;;;;;5005388;28;22093;-64
2023/05/05 08:32:37;;;;;;;1.83;1.30;;;13.30;63.20;;;;;;5006497;28;20210;-64
2023/05/05 08:35:05;;;;;;;1.00;1.00;;;13.30;63.20;;;;;;5006743;28;20191;-64
2023/05/05 08:37:32;;;;;;;1.63;0.90;;;13.40;63.20;;;;;;5006699;28;20225;-65
2023/05/05 08:39:59;;;;;;;3.27;1.13;;;13.40;63.20;;;;;;5005457;28;20841;-64
2023/05/05 08:42:27;;;;;;;3.33;1.20;;;13.50;63.10;;;;;;5005933;28;20200;-64
2023/05/05 08:44:54;;;;;;;1.07;1.00;;;13.50;63.10;;;;;;5007730;28;20215;-64
2023/05/05 08:47:22;;;;;;;1.47;0.90;;;13.60;63.20;;;;;;4985218;28;20240;-64
2023/05/05 08:49:53;;;;;;;1.30;1.00;;;13.70;63.20;;;;;;5006042;28;20195;-64
2023/05/05 08:52:23;;;;;;;1.17;0.90;;;13.80;63.70;;;;;;5001749;28;20242;-64
2023/05/05 08:54:54;;;;;;;1.57;1.27;;;13.80;62.90;;;;;;5007872;28;20335;-64
2023/05/05 08:57:32;;;;;;;5.00;1.40;;;13.90;62.70;;;;;;5003243;28;20198;-64
2023/05/05 09:00:01;;;;;;;1.90;1.10;;;14.00;62.50;;;;;;5006437;28;20694;-64
2023/05/05 09:02:31;;;;;;;2.47;1.33;;;14.00;61.60;;;;;;4992145;28;20231;-64
2023/05/05 09:04:59;;;;;;;1.40;1.20;;;14.00;61.00;;;;;;5006186;28;20529;-65
2023/05/05 09:07:26;;;;;;;1.37;1.20;;;14.00;61.00;;;;;;5007338;28;20203;-64
2023/05/05 09:09:54;;;;;;;2.90;1.30;;;14.10;61.20;;;;;;4996287;28;20250;-65
2023/05/05 09:12:22;;;;;;;1.77;1.00;;;14.10;60.70;;;;;;5008005;28;20212;-64
2023/05/05 09:14:49;;;;;;;3.13;0.80;;;14.10;60.90;;;;;;5009763;28;20279;-65
2023/05/05 09:17:23;;;;;;;0.80;0.80;;;14.20;61.00;;;;;;5008458;28;20192;-64
2023/05/05 09:20:04;;;;;;;4.60;1.30;;;14.30;60.90;;;;;;5008714;28;20196;-66
2023/05/05 09:22:36;;;;;;;2.13;0.80;;;14.30;60.30;;;;;;5012008;28;20738;-65
2023/05/05 09:25:04;;;;;;;0.77;0.70;;;14.30;60.00;;;;;;5010529;28;20278;-64
2023/05/05 09:27:35;;;;;;;4.50;1.00;;;14.40;60.10;;;;;;5011103;28;20338;-65
2023/05/05 09:30:03;;;;;;;7.27;1.10;;;14.40;59.70;;;;;;5009499;28;20203;-65
2023/05/05 09:32:30;;;;;;;2.73;0.90;;;14.40;59.40;;;;;;5009025;28;20666;-64
2023/05/05 09:34:58;;;;;;;0.77;0.77;;;14.30;59.00;;;;;;5008692;28;21134;-65
2023/05/05 09:37:31;;;;;;;1.77;1.00;;;14.30;59.20;;;;;;4997742;28;20273;-64
2023/05/05 09:40:00;;;;;;;2.93;1.03;;;14.20;58.90;;;;;;5008658;28;20194;-65
2023/05/05 09:42:27;;;;;;;0.80;0.80;;;14.30;59.20;;;;;;5009887;28;20630;-65
2023/05/05 09:44:55;;;;;;;5.10;0.97;;;14.50;59.20;;;;;;5010695;28;20563;-64
2023/05/05 09:47:33;;;;;;;2.30;0.70;;;14.50;58.60;;;;;;5007263;28;20456;-65
2023/05/05 09:50:00;;;;;;;1.57;0.90;;;14.50;58.00;;;;;;5008549;28;20219;-65
2023/05/05 09:52:29;;;;;;;0.70;0.70;;;14.50;58.00;;;;;;5008324;28;20561;-65
2023/05/05 09:54:57;;;;;;;1.67;0.80;;;14.60;58.20;;;;;;5009901;28;20669;-65
2023/05/05 09:57:29;;;;;;;3.07;1.00;;;14.70;58.20;;;;;;5009007;28;20600;-65
2023/05/05 09:59:57;;;;;;;2.60;1.00;;;14.70;57.90;;;;;;5009741;28;20200;-65
2023/05/05 10:02:32;;;;;;;4.90;1.13;;;14.70;57.90;;;;;;5005745;28;20441;-64
2023/05/05 10:05:07;;;;;;;0.87;0.83;;;14.80;57.80;;;;;;5008325;28;20291;-65
2023/05/05 10:07:35;;;;;;;5.33;1.23;;;14.80;57.50;;;;;;5009932;28;20220;-65
2023/05/05 10:10:06;;;;;;;2.93;0.83;;;14.80;57.60;;;;;;5009540;28;20513;-65
2023/05/05 10:12:35;;;;;;;0.70;0.70;;;14.80;57.00;;;;;;5007833;28;20210;-65
2023/05/05 10:15:03;;;;;;;4.87;1.00;;;14.70;56.90;;;;;;5007895;28;20501;-64
2023/05/05 10:17:32;;;;;;;2.20;1.10;;;14.60;56.90;;;;;;5006199;28;20838;-65
2023/05/05 10:20:02;;;;;;;1.93;1.00;;;14.60;57.10;;;;;;5008982;28;20193;-65
2023/05/05 10:22:34;;;;;;;1.20;1.00;;;14.60;57.10;;;;;;5007826;28;20307;-64
2023/05/05 10:25:09;;;;;;;0.90;0.80;;;14.60;56.80;;;;;;5007663;28;20204;-65
2023/05/05 10:27:42;;;;;;;0.93;0.80;;;14.60;56.60;;;;;;5009731;28;20242;-65
2023/05/05 10:30:16;;;;;;;2.50;1.37;;;14.60;56.80;;;;;;5008285;28;20212;-65
2023/05/05 10:32:46;;;;;;;9.17;1.20;;;14.50;57.00;;;;;;5006560;28;20193;-65
2023/05/05 10:35:16;;;;;;;1.90;1.03;;;14.50;57.10;;;;;;5006090;28;20200;-64
2023/05/05 10:37:45;;;;;;;1.43;0.97;;;14.40;56.80;;;;;;5009373;28;20196;-65
2023/05/05 10:40:14;;;;;;;2.23;1.30;;;14.50;56.70;;;;;;4995302;28;20632;-65
2023/05/05 10:42:42;;;;;;;0.90;0.90;;;14.50;56.50;;;;;;5008944;28;20210;-64
2023/05/05 10:45:09;;;;;;;0.93;0.80;;;14.50;56.40;;;;;;5007634;28;20204;-65
2023/05/05 10:47:39;;;;;;;3.33;0.93;;;14.60;56.60;;;;;;5004188;28;20213;-65
2023/05/05 10:50:13;;;;;;;0.80;0.80;;;14.70;56.70;;;;;;5007807;28;20568;-65
2023/05/05 10:52:47;;;;;;;1.43;0.80;;;14.90;56.50;;;;;;5007160;28;20197;-65
2023/05/05 10:55:20;;;;;;;4.73;0.90;;;14.90;55.80;;;;;;5006936;28;20767;-64
2023/05/05 10:57:52;;;;;;;2.80;1.00;;;15.00;56.00;;;;;;5007699;28;20193;-64
2023/05/05 11:00:53;;;;;;;1.03;0.90;;;15.20;56.10;;;;;;5008747;28;20213;-64
2023/05/05 11:03:21;;;;;;;4.07;1.10;;;15.30;55.70;;;;;;5004191;28;20660;-64
2023/05/05 11:06:12;;;;;;;1.53;1.00;;;15.30;55.30;;;;;;5006185;28;20204;-63
2023/05/05 11:08:40;;;;;;;1.27;1.17;;;15.30;54.70;;;;;;5007389;28;20237;-65
2023/05/05 11:11:10;;;;;;;1.20;0.57;;;15.20;54.10;;;;;;5006902;28;20209;-65
2023/05/05 11:13:38;;;;;;;0.70;0.70;;;15.40;54.80;;;;;;4995542;28;20567;-65
2023/05/05 11:16:25;;;;;;;1.23;0.90;;;15.20;54.50;;;;;;4993623;28;20241;-65
2023/05/05 11:18:53;;;;;;;2.97;0.90;;;15.20;54.40;;;;;;5003215;28;20197;-65
2023/05/05 11:21:20;;;;;;;2.00;0.90;;;15.20;54.80;;;;;;5009084;28;20505;-65
2023/05/05 11:23:51;;;;;;;5.00;0.93;;;15.30;54.80;;;;;;5007003;28;20683;-65
2023/05/05 11:26:50;;;;;;;1.23;0.90;;;15.40;54.70;;;;;;4995869;28;20340;-64
2023/05/05 11:29:17;;;;;;;2.40;1.10;;;15.50;53.90;;;;;;5005070;28;20215;-64
2023/05/05 11:31:46;;;;;;;2.93;0.80;;;15.50;53.70;;;;;;5007593;28;20249;-64
2023/05/05 11:34:27;;;;;;;1.20;0.80;;;15.60;53.80;;;;;;5006730;28;20225;-64
2023/05/05 11:37:00;;;;;;;1.00;0.90;;;15.70;53.30;;;;;;4995592;28;20280;-64
2023/05/05 11:39:38;;;;;;;3.83;1.10;;;15.60;52.50;;;;;;5006841;28;20566;-63
2023/05/05 11:42:24;;;;;;;3.63;1.07;;;15.40;51.80;;;;;;5009020;28;20192;-64
2023/05/05 11:44:51;;;;;;;2.93;0.97;;;15.20;52.40;;;;;;5008437;28;20637;-64
2023/05/05 11:47:30;;;;;;;1.73;0.97;;;15.10;52.20;;;;;;5006487;28;20194;-64
2023/05/05 11:49:57;;;;;;;3.63;1.10;;;15.10;52.60;;;;;;5006044;28;20235;-64
2023/05/05 11:52:26;;;;;;;2.63;0.80;;;15.10;53.00;;;;;;5005922;28;20432;-65
2023/05/05 11:54:59;;;;;;;2.70;1.00;;;15.20;53.20;;;;;;5007619;28;20685;-65
2023/05/05 11:57:31;;;;;;;0.90;0.90;;;15.30;53.80;;;;;;5006420;28;20227;-65
2023/05/05 12:00:00;;;;;;;3.20;0.60;;;15.30;53.00;;;;;;5007717;28;20194;-65
2023/05/05 12:02:28;;;;;;;1.17;0.80;;;15.30;52.90;;;;;;5003586;28;20277;-65
2023/05/05 12:04:56;;;;;;;0.77;0.77;;;15.30;52.90;;;;;;5006589;28;20245;-65
2023/05/05 12:07:27;;;;;;;0.83;0.70;;;15.30;52.40;;;;;;5007456;28;20633;-64
2023/05/05 12:09:54;;;;;;;1.17;1.07;;;15.30;52.00;;;;;;5006176;28;22441;-65
2023/05/05 12:12:33;;;;;;;3.87;0.90;;;15.20;52.00;;;;;;5005335;28;20219;-64
2023/05/05 12:15:02;;;;;;;2.60;0.80;;;15.20;52.30;;;;;;5006730;28;20199;-65
2023/05/05 12:17:38;;;;;;;4.83;0.77;;;15.10;52.60;;;;;;5003362;28;20279;-65
2023/05/05 12:20:07;;;;;;;3.43;0.90;;;15.10;52.70;;;;;;5007746;28;20187;-65
2023/05/05 12:22:34;;;;;;;2.17;1.00;;;15.20;52.50;;;;;;5005116;28;20251;-65
2023/05/05 12:25:03;;;;;;;1.33;0.80;;;15.20;52.50;;;;;;5005592;28;20201;-66
2023/05/05 12:27:31;;;;;;;3.50;0.90;;;15.10;52.50;;;;;;5006747;28;20292;-65
2023/05/05 12:30:12;;;;;;;3.17;1.10;;;15.20;52.40;;;;;;5005987;28;20288;-66
2023/05/05 12:32:40;;;;;;;3.07;1.00;;;15.10;51.40;;;;;;5004414;28;20280;-65
2023/05/05 12:35:08;;;;;;;2.13;1.10;;;15.00;51.50;;;;;;5006123;28;20201;-65
2023/05/05 12:37:36;;;;;;;1.77;0.90;;;14.90;51.60;;;;;;5006271;28;20209;-65
2023/05/05 12:40:05;;;;;;;1.07;0.80;;;14.90;51.60;;;;;;5007688;28;20213;-65
2023/05/05 12:42:37;;;;;;;1.47;0.77;;;14.90;51.80;;;;;;5005478;28;20286;-65
2023/05/05 12:45:07;;;;;;;1.83;0.60;;;15.00;51.70;;;;;;5008725;28;20239;-65
2023/05/05 12:47:36;;;;;;;1.10;0.73;;;14.90;51.80;;;;;;5007459;28;20205;-65
2023/05/05 12:50:03;;;;;;;1.07;0.93;;;14.90;51.80;;;;;;5009702;28;20209;-65
2023/05/05 12:52:43;;;;;;;1.17;0.70;;;14.80;50.80;;;;;;5010303;28;20510;-65
2023/05/05 12:55:11;;;;;;;0.63;0.57;;;14.80;50.50;;;;;;5010202;28;20192;-64
2023/05/05 12:57:39;;;;;;;1.77;0.60;;;14.70;50.30;;;;;;5008707;28;22101;-66
2023/05/05 13:00:14;;;;;;;0.70;0.70;;;14.70;50.40;;;;;;5010752;28;20202;-65
2023/05/05 13:02:42;;;;;;;2.20;0.70;;;14.60;50.20;;;;;;5007600;28;20201;-64